sensor_id;sensor_type;location;lat;lon;timestamp;temperature;humidity
79750;SHT31;69233;51.968;5.658;2024-03-06T00:02:08;9.8;65.1
79750;SHT31;69233;51.968;5.658;2024-03-06T00:04:37;9.7;65.2
79750;SHT31;69233;51.968;5.658;2024-03-06T00:07:06;9.7;65.7
79750;SHT31;69233;51.968;5.658;2024-03-06T00:09:34;9.6;65.4
79750;SHT31;69233;51.968;5.658;2024-03-06T00:12:05;9.6;65.9
79750;SHT31;69233;51.968;5.658;2024-03-06T00:14:35;9.5;66.8
79750;SHT31;69233;51.968;5.658;2024-03-06T00:17:04;9.5;66.5
79750;SHT31;69233;51.968;5.658;2024-03-06T00:19:33;9.5;66.8
79750;SHT31;69233;51.968;5.658;2024-03-06T00:22:02;9.4;66.6
79750;SHT31;69233;51.968;5.658;2024-03-06T00:24:30;9.4;66.3
79750;SHT31;69233;51.968;5.658;2024-03-06T00:26:59;9.4;66.2
79750;SHT31;69233;51.968;5.658;2024-03-06T00:29:30;9.4;65.9
79750;SHT31;69233;51.968;5.658;2024-03-06T00:32:01;9.3;65.8
79750;SHT31;69233;51.968;5.658;2024-03-06T00:34:32;9.3;65.8
79750;SHT31;69233;51.968;5.658;2024-03-06T00:37:00;9.3;66.0
79750;SHT31;69233;51.968;5.658;2024-03-06T00:39:29;9.3;65.5
79750;SHT31;69233;51.968;5.658;2024-03-06T00:41:57;9.2;65.7
79750;SHT31;69233;51.968;5.658;2024-03-06T00:44:26;9.2;65.5
79750;SHT31;69233;51.968;5.658;2024-03-06T00:46:55;9.2;65.4
79750;SHT31;69233;51.968;5.658;2024-03-06T00:49:25;9.1;65.2
79750;SHT31;69233;51.968;5.658;2024-03-06T00:51:54;9.1;65.0
79750;SHT31;69233;51.968;5.658;2024-03-06T00:54:22;9.1;65.5
79750;SHT31;69233;51.968;5.658;2024-03-06T00:56:51;9.0;65.5
79750;SHT31;69233;51.968;5.658;2024-03-06T00:59:20;9.0;65.7
79750;SHT31;69233;51.968;5.658;2024-03-06T01:01:48;9.0;65.6
79750;SHT31;69233;51.968;5.658;2024-03-06T01:04:18;8.9;65.6
79750;SHT31;69233;51.968;5.658;2024-03-06T01:06:46;8.9;65.6
79750;SHT31;69233;51.968;5.658;2024-03-06T01:09:15;8.9;65.4
79750;SHT31;69233;51.968;5.658;2024-03-06T01:11:45;8.8;65.5
79750;SHT31;69233;51.968;5.658;2024-03-06T01:14:15;8.8;65.9
79750;SHT31;69233;51.968;5.658;2024-03-06T01:16:44;8.8;65.9
79750;SHT31;69233;51.968;5.658;2024-03-06T01:19:12;8.7;65.8
79750;SHT31;69233;51.968;5.658;2024-03-06T01:21:41;8.7;65.9
79750;SHT31;69233;51.968;5.658;2024-03-06T01:24:10;8.7;65.6
79750;SHT31;69233;51.968;5.658;2024-03-06T01:26:38;8.6;65.6
79750;SHT31;69233;51.968;5.658;2024-03-06T01:29:07;8.6;65.7
79750;SHT31;69233;51.968;5.658;2024-03-06T01:31:35;8.6;65.9
79750;SHT31;69233;51.968;5.658;2024-03-06T01:34:04;8.6;65.8
79750;SHT31;69233;51.968;5.658;2024-03-06T01:36:32;8.5;65.6
79750;SHT31;69233;51.968;5.658;2024-03-06T01:39:01;8.5;65.7
79750;SHT31;69233;51.968;5.658;2024-03-06T01:41:30;8.5;65.7
79750;SHT31;69233;51.968;5.658;2024-03-06T01:43:58;8.4;65.6
79750;SHT31;69233;51.968;5.658;2024-03-06T01:46:27;8.4;65.8
79750;SHT31;69233;51.968;5.658;2024-03-06T01:48:58;8.4;65.7
79750;SHT31;69233;51.968;5.658;2024-03-06T01:51:27;8.4;65.9
79750;SHT31;69233;51.968;5.658;2024-03-06T01:53:56;8.4;65.7
79750;SHT31;69233;51.968;5.658;2024-03-06T01:56:25;8.3;65.9
79750;SHT31;69233;51.968;5.658;2024-03-06T01:58:54;8.4;66.2
79750;SHT31;69233;51.968;5.658;2024-03-06T02:01:22;8.4;66.0
79750;SHT31;69233;51.968;5.658;2024-03-06T02:03:52;8.4;65.7
79750;SHT31;69233;51.968;5.658;2024-03-06T02:06:21;8.4;65.7
79750;SHT31;69233;51.968;5.658;2024-03-06T02:08:51;8.4;65.6
79750;SHT31;69233;51.968;5.658;2024-03-06T02:11:19;8.4;65.4
79750;SHT31;69233;51.968;5.658;2024-03-06T02:13:49;8.4;65.3
79750;SHT31;69233;51.968;5.658;2024-03-06T02:16:18;8.3;65.2
79750;SHT31;69233;51.968;5.658;2024-03-06T02:18:53;8.3;65.3
79750;SHT31;69233;51.968;5.658;2024-03-06T02:21:24;8.3;65.5
79750;SHT31;69233;51.968;5.658;2024-03-06T02:23:53;8.3;65.7
79750;SHT31;69233;51.968;5.658;2024-03-06T02:26:22;8.2;65.2
79750;SHT31;69233;51.968;5.658;2024-03-06T02:28:52;8.2;65.5
79750;SHT31;69233;51.968;5.658;2024-03-06T02:31:22;8.2;65.5
79750;SHT31;69233;51.968;5.658;2024-03-06T02:33:51;8.1;65.6
79750;SHT31;69233;51.968;5.658;2024-03-06T02:36:19;8.1;65.7
79750;SHT31;69233;51.968;5.658;2024-03-06T02:38:48;8.1;65.8
79750;SHT31;69233;51.968;5.658;2024-03-06T02:41:17;8.1;65.8
79750;SHT31;69233;51.968;5.658;2024-03-06T02:43:45;8.0;65.9
79750;SHT31;69233;51.968;5.658;2024-03-06T02:46:14;8.0;65.8
79750;SHT31;69233;51.968;5.658;2024-03-06T02:48:42;8.0;65.8
79750;SHT31;69233;51.968;5.658;2024-03-06T02:51:11;8.0;65.9
79750;SHT31;69233;51.968;5.658;2024-03-06T02:53:42;8.0;65.9
79750;SHT31;69233;51.968;5.658;2024-03-06T02:56:17;7.9;66.3
79750;SHT31;69233;51.968;5.658;2024-03-06T02:58:46;7.9;66.8
79750;SHT31;69233;51.968;5.658;2024-03-06T03:01:15;7.9;67.2
79750;SHT31;69233;51.968;5.658;2024-03-06T03:03:43;7.9;67.1
79750;SHT31;69233;51.968;5.658;2024-03-06T03:06:14;7.9;67.2
79750;SHT31;69233;51.968;5.658;2024-03-06T03:08:42;7.9;67.0
79750;SHT31;69233;51.968;5.658;2024-03-06T03:11:11;7.9;67.1
79750;SHT31;69233;51.968;5.658;2024-03-06T03:13:40;7.9;66.9
79750;SHT31;69233;51.968;5.658;2024-03-06T03:16:18;7.9;67.0
79750;SHT31;69233;51.968;5.658;2024-03-06T03:18:47;7.9;66.9
79750;SHT31;69233;51.968;5.658;2024-03-06T03:21:16;7.9;66.4
79750;SHT31;69233;51.968;5.658;2024-03-06T03:23:44;7.8;66.3
79750;SHT31;69233;51.968;5.658;2024-03-06T03:26:13;7.8;66.5
79750;SHT31;69233;51.968;5.658;2024-03-06T03:28:42;7.8;66.8
79750;SHT31;69233;51.968;5.658;2024-03-06T03:31:11;7.8;66.6
79750;SHT31;69233;51.968;5.658;2024-03-06T03:33:41;7.8;66.4
79750;SHT31;69233;51.968;5.658;2024-03-06T03:36:09;7.8;66.2
79750;SHT31;69233;51.968;5.658;2024-03-06T03:38:39;7.8;66.5
79750;SHT31;69233;51.968;5.658;2024-03-06T03:41:09;7.7;66.6
79750;SHT31;69233;51.968;5.658;2024-03-06T03:43:39;7.7;66.4
79750;SHT31;69233;51.968;5.658;2024-03-06T03:46:08;7.7;66.5
79750;SHT31;69233;51.968;5.658;2024-03-06T03:48:37;7.7;66.6
79750;SHT31;69233;51.968;5.658;2024-03-06T03:51:06;7.7;66.2
79750;SHT31;69233;51.968;5.658;2024-03-06T03:53:35;7.7;66.3
79750;SHT31;69233;51.968;5.658;2024-03-06T03:56:04;7.7;66.5
79750;SHT31;69233;51.968;5.658;2024-03-06T03:58:33;7.6;66.4
79750;SHT31;69233;51.968;5.658;2024-03-06T04:01:03;7.6;66.4
79750;SHT31;69233;51.968;5.658;2024-03-06T04:03:32;7.6;66.1
79750;SHT31;69233;51.968;5.658;2024-03-06T04:06:01;7.6;66.1
79750;SHT31;69233;51.968;5.658;2024-03-06T04:08:30;7.6;65.9
79750;SHT31;69233;51.968;5.658;2024-03-06T04:10:58;7.6;66.0
79750;SHT31;69233;51.968;5.658;2024-03-06T04:13:29;7.5;65.8
79750;SHT31;69233;51.968;5.658;2024-03-06T04:15:57;7.5;65.8
79750;SHT31;69233;51.968;5.658;2024-03-06T04:18:28;7.5;65.9
79750;SHT31;69233;51.968;5.658;2024-03-06T04:20:57;7.5;65.8
79750;SHT31;69233;51.968;5.658;2024-03-06T04:23:26;7.4;65.8
79750;SHT31;69233;51.968;5.658;2024-03-06T04:25:55;7.4;65.5
79750;SHT31;69233;51.968;5.658;2024-03-06T04:28:24;7.4;65.4
79750;SHT31;69233;51.968;5.658;2024-03-06T04:30:52;7.4;65.3
79750;SHT31;69233;51.968;5.658;2024-03-06T04:33:21;7.3;65.5
79750;SHT31;69233;51.968;5.658;2024-03-06T04:35:50;7.3;65.7
79750;SHT31;69233;51.968;5.658;2024-03-06T04:38:18;7.3;65.5
79750;SHT31;69233;51.968;5.658;2024-03-06T04:40:47;7.3;65.7
79750;SHT31;69233;51.968;5.658;2024-03-06T04:43:16;7.3;65.4
79750;SHT31;69233;51.968;5.658;2024-03-06T04:45:44;7.3;65.1
79750;SHT31;69233;51.968;5.658;2024-03-06T04:48:13;7.3;65.0
79750;SHT31;69233;51.968;5.658;2024-03-06T04:50:42;7.3;64.9
79750;SHT31;69233;51.968;5.658;2024-03-06T04:53:11;7.3;64.9
79750;SHT31;69233;51.968;5.658;2024-03-06T04:55:40;7.3;65.1
79750;SHT31;69233;51.968;5.658;2024-03-06T04:58:09;7.3;65.2
79750;SHT31;69233;51.968;5.658;2024-03-06T05:00:38;7.2;65.7
79750;SHT31;69233;51.968;5.658;2024-03-06T05:03:07;7.2;65.4
79750;SHT31;69233;51.968;5.658;2024-03-06T05:05:37;7.2;65.6
79750;SHT31;69233;51.968;5.658;2024-03-06T05:08:06;7.2;65.7
79750;SHT31;69233;51.968;5.658;2024-03-06T05:10:36;7.1;65.6
79750;SHT31;69233;51.968;5.658;2024-03-06T05:13:06;7.1;65.8
79750;SHT31;69233;51.968;5.658;2024-03-06T05:15:35;7.1;66.0
79750;SHT31;69233;51.968;5.658;2024-03-06T05:18:05;7.1;65.8
79750;SHT31;69233;51.968;5.658;2024-03-06T05:20:35;7.0;66.2
79750;SHT31;69233;51.968;5.658;2024-03-06T05:23:04;7.0;65.8
79750;SHT31;69233;51.968;5.658;2024-03-06T05:25:33;7.0;65.8
79750;SHT31;69233;51.968;5.658;2024-03-06T05:28:01;7.0;66.0
79750;SHT31;69233;51.968;5.658;2024-03-06T05:30:30;6.9;66.0
79750;SHT31;69233;51.968;5.658;2024-03-06T05:32:59;6.9;66.3
79750;SHT31;69233;51.968;5.658;2024-03-06T05:35:27;6.9;66.6
79750;SHT31;69233;51.968;5.658;2024-03-06T05:37:56;6.9;66.5
79750;SHT31;69233;51.968;5.658;2024-03-06T05:40:25;6.9;66.4
79750;SHT31;69233;51.968;5.658;2024-03-06T05:42:55;6.9;66.4
79750;SHT31;69233;51.968;5.658;2024-03-06T05:45:24;6.9;66.4
79750;SHT31;69233;51.968;5.658;2024-03-06T05:47:52;6.8;66.4
79750;SHT31;69233;51.968;5.658;2024-03-06T05:50:21;6.8;66.4
79750;SHT31;69233;51.968;5.658;2024-03-06T05:52:50;6.8;66.6
79750;SHT31;69233;51.968;5.658;2024-03-06T05:55:19;6.8;67.1
79750;SHT31;69233;51.968;5.658;2024-03-06T05:57:47;6.8;67.6
79750;SHT31;69233;51.968;5.658;2024-03-06T06:00:17;6.8;67.8
79750;SHT31;69233;51.968;5.658;2024-03-06T06:02:48;6.8;67.9
79750;SHT31;69233;51.968;5.658;2024-03-06T06:05:17;6.8;67.8
79750;SHT31;69233;51.968;5.658;2024-03-06T06:07:49;6.8;67.7
79750;SHT31;69233;51.968;5.658;2024-03-06T06:10:18;6.8;67.7
79750;SHT31;69233;51.968;5.658;2024-03-06T06:12:46;6.8;68.0
79750;SHT31;69233;51.968;5.658;2024-03-06T06:15:16;6.8;68.8
79750;SHT31;69233;51.968;5.658;2024-03-06T06:17:45;6.8;68.2
79750;SHT31;69233;51.968;5.658;2024-03-06T06:20:13;6.8;68.1
79750;SHT31;69233;51.968;5.658;2024-03-06T06:22:43;6.8;68.1
79750;SHT31;69233;51.968;5.658;2024-03-06T06:25:11;6.9;68.2
79750;SHT31;69233;51.968;5.658;2024-03-06T06:27:42;6.9;68.4
79750;SHT31;69233;51.968;5.658;2024-03-06T06:30:11;6.9;68.4
79750;SHT31;69233;51.968;5.658;2024-03-06T06:32:40;6.9;68.8
79750;SHT31;69233;51.968;5.658;2024-03-06T06:35:10;6.9;68.9
79750;SHT31;69233;51.968;5.658;2024-03-06T06:37:40;7.0;70.0
79750;SHT31;69233;51.968;5.658;2024-03-06T06:40:09;7.0;70.3
79750;SHT31;69233;51.968;5.658;2024-03-06T06:42:44;7.1;70.8
79750;SHT31;69233;51.968;5.658;2024-03-06T06:45:16;7.1;71.0
79750;SHT31;69233;51.968;5.658;2024-03-06T06:47:45;7.2;71.1
79750;SHT31;69233;51.968;5.658;2024-03-06T06:50:14;7.2;73.8
79750;SHT31;69233;51.968;5.658;2024-03-06T06:52:43;7.3;74.2
79750;SHT31;69233;51.968;5.658;2024-03-06T06:55:13;7.4;74.3
79750;SHT31;69233;51.968;5.658;2024-03-06T06:57:44;7.5;74.5
79750;SHT31;69233;51.968;5.658;2024-03-06T07:00:13;7.6;73.8
79750;SHT31;69233;51.968;5.658;2024-03-06T07:02:45;7.7;73.0
79750;SHT31;69233;51.968;5.658;2024-03-06T07:05:15;7.8;72.1
79750;SHT31;69233;51.968;5.658;2024-03-06T07:07:43;7.8;71.7
79750;SHT31;69233;51.968;5.658;2024-03-06T07:10:13;7.9;71.3
79750;SHT31;69233;51.968;5.658;2024-03-06T07:12:41;8.0;70.9
79750;SHT31;69233;51.968;5.658;2024-03-06T07:15:10;8.1;70.6
79750;SHT31;69233;51.968;5.658;2024-03-06T07:17:39;8.1;70.4
79750;SHT31;69233;51.968;5.658;2024-03-06T07:20:08;8.1;69.7
79750;SHT31;69233;51.968;5.658;2024-03-06T07:22:38;8.2;69.6
79750;SHT31;69233;51.968;5.658;2024-03-06T07:25:07;8.2;69.6
79750;SHT31;69233;51.968;5.658;2024-03-06T07:27:37;8.2;69.9
79750;SHT31;69233;51.968;5.658;2024-03-06T07:30:07;8.3;69.7
79750;SHT31;69233;51.968;5.658;2024-03-06T07:32:37;8.4;69.4
79750;SHT31;69233;51.968;5.658;2024-03-06T07:35:07;8.4;69.2
79750;SHT31;69233;51.968;5.658;2024-03-06T07:37:36;8.4;69.2
79750;SHT31;69233;51.968;5.658;2024-03-06T07:40:05;8.4;68.9
79750;SHT31;69233;51.968;5.658;2024-03-06T07:42:36;8.4;68.9
79750;SHT31;69233;51.968;5.658;2024-03-06T07:45:05;8.4;69.2
79750;SHT31;69233;51.968;5.658;2024-03-06T07:47:35;8.4;69.1
79750;SHT31;69233;51.968;5.658;2024-03-06T07:50:07;8.5;69.2
79750;SHT31;69233;51.968;5.658;2024-03-06T07:52:38;8.5;69.0
79750;SHT31;69233;51.968;5.658;2024-03-06T07:55:07;8.5;68.8
79750;SHT31;69233;51.968;5.658;2024-03-06T07:57:35;8.5;68.3
79750;SHT31;69233;51.968;5.658;2024-03-06T08:00:05;8.5;68.6
79750;SHT31;69233;51.968;5.658;2024-03-06T08:02:40;8.5;69.2
79750;SHT31;69233;51.968;5.658;2024-03-06T08:05:13;8.5;69.8
79750;SHT31;69233;51.968;5.658;2024-03-06T08:07:43;8.5;69.8
79750;SHT31;69233;51.968;5.658;2024-03-06T08:10:13;8.5;69.8
79750;SHT31;69233;51.968;5.658;2024-03-06T08:12:45;8.5;70.4
79750;SHT31;69233;51.968;5.658;2024-03-06T08:15:14;8.6;70.8
79750;SHT31;69233;51.968;5.658;2024-03-06T08:17:44;8.6;70.6
79750;SHT31;69233;51.968;5.658;2024-03-06T08:20:13;8.6;70.2
79750;SHT31;69233;51.968;5.658;2024-03-06T08:22:42;8.6;69.8
79750;SHT31;69233;51.968;5.658;2024-03-06T08:25:12;8.7;69.4
79750;SHT31;69233;51.968;5.658;2024-03-06T08:27:42;8.7;69.8
79750;SHT31;69233;51.968;5.658;2024-03-06T08:30:11;8.7;70.5
79750;SHT31;69233;51.968;5.658;2024-03-06T08:32:40;8.7;70.7
79750;SHT31;69233;51.968;5.658;2024-03-06T08:35:11;8.8;70.8
79750;SHT31;69233;51.968;5.658;2024-03-06T08:37:42;8.8;71.1
79750;SHT31;69233;51.968;5.658;2024-03-06T08:40:11;8.8;71.0
79750;SHT31;69233;51.968;5.658;2024-03-06T08:42:41;8.9;71.7
79750;SHT31;69233;51.968;5.658;2024-03-06T08:45:10;8.9;71.4
79750;SHT31;69233;51.968;5.658;2024-03-06T08:47:39;8.9;71.6
79750;SHT31;69233;51.968;5.658;2024-03-06T08:50:08;9.0;71.8
79750;SHT31;69233;51.968;5.658;2024-03-06T08:52:37;9.0;71.4
79750;SHT31;69233;51.968;5.658;2024-03-06T08:55:08;9.0;71.6
79750;SHT31;69233;51.968;5.658;2024-03-06T08:57:38;9.1;71.5
79750;SHT31;69233;51.968;5.658;2024-03-06T09:00:08;9.1;71.0
79750;SHT31;69233;51.968;5.658;2024-03-06T09:02:37;9.1;71.4
79750;SHT31;69233;51.968;5.658;2024-03-06T09:05:07;9.1;71.9
79750;SHT31;69233;51.968;5.658;2024-03-06T09:07:36;9.2;71.6
79750;SHT31;69233;51.968;5.658;2024-03-06T09:10:08;9.2;72.4
79750;SHT31;69233;51.968;5.658;2024-03-06T09:12:37;9.3;72.3
79750;SHT31;69233;51.968;5.658;2024-03-06T09:15:07;9.3;73.1
79750;SHT31;69233;51.968;5.658;2024-03-06T09:17:37;9.4;72.1
79750;SHT31;69233;51.968;5.658;2024-03-06T09:20:07;9.5;72.1
79750;SHT31;69233;51.968;5.658;2024-03-06T09:22:39;9.5;72.1
79750;SHT31;69233;51.968;5.658;2024-03-06T09:25:09;9.6;71.7
79750;SHT31;69233;51.968;5.658;2024-03-06T09:27:42;9.7;72.0
79750;SHT31;69233;51.968;5.658;2024-03-06T09:30:12;9.8;71.9
79750;SHT31;69233;51.968;5.658;2024-03-06T09:32:42;9.9;71.8
79750;SHT31;69233;51.968;5.658;2024-03-06T09:35:12;9.9;71.2
79750;SHT31;69233;51.968;5.658;2024-03-06T09:37:44;10.0;72.3
79750;SHT31;69233;51.968;5.658;2024-03-06T09:40:21;10.1;71.8
79750;SHT31;69233;51.968;5.658;2024-03-06T09:42:51;10.2;71.6
79750;SHT31;69233;51.968;5.658;2024-03-06T09:45:20;10.3;71.9
79750;SHT31;69233;51.968;5.658;2024-03-06T09:47:49;10.4;70.8
79750;SHT31;69233;51.968;5.658;2024-03-06T09:50:23;10.4;70.4
79750;SHT31;69233;51.968;5.658;2024-03-06T09:52:55;10.5;70.3
79750;SHT31;69233;51.968;5.658;2024-03-06T09:55:25;10.6;69.6
79750;SHT31;69233;51.968;5.658;2024-03-06T09:57:53;10.6;69.2
79750;SHT31;69233;51.968;5.658;2024-03-06T10:00:22;10.7;69.7
79750;SHT31;69233;51.968;5.658;2024-03-06T10:02:57;10.8;69.8
79750;SHT31;69233;51.968;5.658;2024-03-06T10:05:28;10.8;69.4
79750;SHT31;69233;51.968;5.658;2024-03-06T10:08:00;10.8;68.7
79750;SHT31;69233;51.968;5.658;2024-03-06T10:10:30;10.9;69.5
79750;SHT31;69233;51.968;5.658;2024-03-06T10:12:59;10.9;69.0
79750;SHT31;69233;51.968;5.658;2024-03-06T10:15:29;11.0;69.1
79750;SHT31;69233;51.968;5.658;2024-03-06T10:18:15;11.1;69.5
79750;SHT31;69233;51.968;5.658;2024-03-06T10:20:45;11.2;68.7
79750;SHT31;69233;51.968;5.658;2024-03-06T10:23:14;11.3;68.6
79750;SHT31;69233;51.968;5.658;2024-03-06T10:25:44;11.4;67.3
79750;SHT31;69233;51.968;5.658;2024-03-06T10:28:18;11.4;67.0
79750;SHT31;69233;51.968;5.658;2024-03-06T10:30:47;11.5;67.0
79750;SHT31;69233;51.968;5.658;2024-03-06T10:33:17;11.5;67.5
79750;SHT31;69233;51.968;5.658;2024-03-06T10:35:47;11.5;67.0
79750;SHT31;69233;51.968;5.658;2024-03-06T10:38:19;11.5;66.2
79750;SHT31;69233;51.968;5.658;2024-03-06T10:40:51;11.5;66.3
79750;SHT31;69233;51.968;5.658;2024-03-06T10:43:21;11.5;67.2
79750;SHT31;69233;51.968;5.658;2024-03-06T10:45:57;11.5;67.9
79750;SHT31;69233;51.968;5.658;2024-03-06T10:48:28;11.5;67.9
79750;SHT31;69233;51.968;5.658;2024-03-06T10:50:59;11.5;67.4
79750;SHT31;69233;51.968;5.658;2024-03-06T10:53:30;11.5;68.1
79750;SHT31;69233;51.968;5.658;2024-03-06T10:56:00;11.5;68.3
79750;SHT31;69233;51.968;5.658;2024-03-06T10:58:30;11.6;67.2
79750;SHT31;69233;51.968;5.658;2024-03-06T11:01:05;11.6;67.8
79750;SHT31;69233;51.968;5.658;2024-03-06T11:03:35;11.6;68.7
79750;SHT31;69233;51.968;5.658;2024-03-06T11:06:06;11.7;68.9
79750;SHT31;69233;51.968;5.658;2024-03-06T11:08:34;11.8;69.6
79750;SHT31;69233;51.968;5.658;2024-03-06T11:11:21;11.9;69.9
79750;SHT31;69233;51.968;5.658;2024-03-06T11:13:50;12.0;68.1
79750;SHT31;69233;51.968;5.658;2024-03-06T11:16:28;12.2;66.8
79750;SHT31;69233;51.968;5.658;2024-03-06T11:19:08;12.3;67.0
79750;SHT31;69233;51.968;5.658;2024-03-06T11:21:46;12.4;66.7
79750;SHT31;69233;51.968;5.658;2024-03-06T11:24:34;12.5;65.0
79750;SHT31;69233;51.968;5.658;2024-03-06T11:27:04;12.5;65.5
79750;SHT31;69233;51.968;5.658;2024-03-06T11:30:05;12.6;65.8
79750;SHT31;69233;51.968;5.658;2024-03-06T11:32:58;12.6;67.1
79750;SHT31;69233;51.968;5.658;2024-03-06T11:35:29;12.7;65.1
79750;SHT31;69233;51.968;5.658;2024-03-06T11:38:01;12.9;67.2
79750;SHT31;69233;51.968;5.658;2024-03-06T11:40:29;13.1;67.1
79750;SHT31;69233;51.968;5.658;2024-03-06T11:43:23;13.3;64.2
79750;SHT31;69233;51.968;5.658;2024-03-06T11:45:53;13.4;63.8
79750;SHT31;69233;51.968;5.658;2024-03-06T11:48:22;13.5;62.2
79750;SHT31;69233;51.968;5.658;2024-03-06T11:50:51;13.6;63.2
79750;SHT31;69233;51.968;5.658;2024-03-06T11:53:20;13.7;63.2
79750;SHT31;69233;51.968;5.658;2024-03-06T11:55:52;13.9;65.2
79750;SHT31;69233;51.968;5.658;2024-03-06T11:58:20;14.2;63.4
79750;SHT31;69233;51.968;5.658;2024-03-06T12:00:49;14.5;61.9
79750;SHT31;69233;51.968;5.658;2024-03-06T12:03:18;14.8;60.3
79750;SHT31;69233;51.968;5.658;2024-03-06T12:05:50;15.2;60.5
79750;SHT31;69233;51.968;5.658;2024-03-06T12:08:19;15.4;57.5
79750;SHT31;69233;51.968;5.658;2024-03-06T12:10:47;15.5;58.3
79750;SHT31;69233;51.968;5.658;2024-03-06T12:13:16;15.6;56.6
79750;SHT31;69233;51.968;5.658;2024-03-06T12:15:49;15.6;55.8
79750;SHT31;69233;51.968;5.658;2024-03-06T12:18:18;15.6;58.8
79750;SHT31;69233;51.968;5.658;2024-03-06T12:20:49;15.7;57.9
79750;SHT31;69233;51.968;5.658;2024-03-06T12:23:24;15.8;58.4
79750;SHT31;69233;51.968;5.658;2024-03-06T12:26:04;16.0;58.6
79750;SHT31;69233;51.968;5.658;2024-03-06T12:28:33;16.2;60.1
79750;SHT31;69233;51.968;5.658;2024-03-06T12:31:04;16.6;59.7
79750;SHT31;69233;51.968;5.658;2024-03-06T12:33:34;17.0;56.6
79750;SHT31;69233;51.968;5.658;2024-03-06T12:36:07;17.4;58.7
79750;SHT31;69233;51.968;5.658;2024-03-06T12:38:37;18.0;56.5
79750;SHT31;69233;51.968;5.658;2024-03-06T12:41:06;18.5;55.6
79750;SHT31;69233;51.968;5.658;2024-03-06T12:43:34;18.9;53.9
79750;SHT31;69233;51.968;5.658;2024-03-06T12:46:03;19.3;51.8
79750;SHT31;69233;51.968;5.658;2024-03-06T12:48:32;19.7;51.3
79750;SHT31;69233;51.968;5.658;2024-03-06T12:51:00;20.1;48.3
79750;SHT31;69233;51.968;5.658;2024-03-06T12:53:31;20.5;50.2
79750;SHT31;69233;51.968;5.658;2024-03-06T12:56:01;20.8;50.3
79750;SHT31;69233;51.968;5.658;2024-03-06T12:58:30;21.2;48.0
79750;SHT31;69233;51.968;5.658;2024-03-06T13:01:01;21.5;46.7
79750;SHT31;69233;51.968;5.658;2024-03-06T13:03:30;21.9;45.5
79750;SHT31;69233;51.968;5.658;2024-03-06T13:05:59;22.3;44.1
79750;SHT31;69233;51.968;5.658;2024-03-06T13:08:28;22.6;43.5
79750;SHT31;69233;51.968;5.658;2024-03-06T13:10:56;23.0;42.1
79750;SHT31;69233;51.968;5.658;2024-03-06T13:13:25;23.2;43.5
79750;SHT31;69233;51.968;5.658;2024-03-06T13:15:56;23.4;41.4
79750;SHT31;69233;51.968;5.658;2024-03-06T13:18:25;23.6;41.4
79750;SHT31;69233;51.968;5.658;2024-03-06T13:20:54;23.8;41.6
79750;SHT31;69233;51.968;5.658;2024-03-06T13:23:24;24.0;40.5
79750;SHT31;69233;51.968;5.658;2024-03-06T13:25:53;24.1;39.9
79750;SHT31;69233;51.968;5.658;2024-03-06T13:28:22;24.3;39.2
79750;SHT31;69233;51.968;5.658;2024-03-06T13:30:50;24.5;39.6
79750;SHT31;69233;51.968;5.658;2024-03-06T13:33:19;24.7;38.5
79750;SHT31;69233;51.968;5.658;2024-03-06T13:35:51;24.9;37.5
79750;SHT31;69233;51.968;5.658;2024-03-06T13:38:22;25.0;36.6
79750;SHT31;69233;51.968;5.658;2024-03-06T13:40:50;25.2;38.3
79750;SHT31;69233;51.968;5.658;2024-03-06T13:43:19;25.3;37.2
79750;SHT31;69233;51.968;5.658;2024-03-06T13:45:50;25.5;34.8
79750;SHT31;69233;51.968;5.658;2024-03-06T13:48:19;25.5;33.0
79750;SHT31;69233;51.968;5.658;2024-03-06T13:50:49;25.5;32.6
79750;SHT31;69233;51.968;5.658;2024-03-06T13:53:17;25.3;32.8
79750;SHT31;69233;51.968;5.658;2024-03-06T13:55:46;25.1;34.7
79750;SHT31;69233;51.968;5.658;2024-03-06T13:58:16;24.9;35.0
79750;SHT31;69233;51.968;5.658;2024-03-06T14:00:45;24.7;34.9
79750;SHT31;69233;51.968;5.658;2024-03-06T14:03:14;24.6;36.5
79750;SHT31;69233;51.968;5.658;2024-03-06T14:05:42;24.6;34.7
79750;SHT31;69233;51.968;5.658;2024-03-06T14:08:11;24.5;34.6
